Smithton, Australia
Current Conditions -  °F | °C
As of 7:00 PM on Thursday 29 Jan 2015 (Local Time) from YMLT Reporting Station
Clear Clear  
Wind Chill: 59°   Ceiling: Unl
Heat Index: 59°   Visibility: 6mi
Dew Point: 43°   Wind: 22mph
Humidity: 55%   Direction: 150°SSE
Pressure: 30.12"   Gusts: NA
Location:  40.84°S, 145.12°E
Report Text: YMLT 290800Z AUTO 15019KT 9999 // NCD 15/06 Q1020
Loading
Personal Weather Stations






























Interactive Weather Map New forecast layout! Learn more

10-Day Weather Forecast

Advertisements
Track Severe Weather on mobile